Time;durP1;ratioP1;P1;durP2;ratioP2;P2;SDS_P1;SDS_P2;PMS_P1;PMS_P2;Temp;Humidity;BMP_temperature;BMP_pressure;BME280_temperature;BME280_humidity;BME280_pressure;Samples;Min_cycle;Max_cycle;Signal;HPM_P1;HPM_P2
2024/02/26 00:00:12;;;;;;;2.38;1.48;;;;;;;6.43;100.00;98630.59;4938612;28;20098;-72
2024/02/26 00:02:41;;;;;;;2.50;1.60;;;;;;;6.48;100.00;98649.56;4982847;28;20054;-70
2024/02/26 00:05:11;;;;;;;2.47;1.70;;;;;;;6.50;100.00;98642.44;4983210;28;20492;-73
2024/02/26 00:07:40;;;;;;;3.28;1.75;;;;;;;6.52;100.00;98639.72;4980318;28;20054;-72
2024/02/26 00:10:09;;;;;;;1.90;1.67;;;;;;;6.47;100.00;98624.19;4969775;28;20133;-70
2024/02/26 00:12:38;;;;;;;2.92;1.80;;;;;;;6.57;100.00;98635.06;4967362;28;20419;-70
2024/02/26 00:15:10;;;;;;;2.22;1.65;;;;;;;6.55;100.00;98632.50;4982961;28;20384;-72
2024/02/26 00:17:42;;;;;;;2.35;1.73;;;;;;;6.57;100.00;98629.78;4965522;28;20126;-68
2024/02/26 00:20:11;;;;;;;2.80;1.52;;;;;;;6.57;100.00;98628.00;4955296;28;20047;-68
2024/02/26 00:22:38;;;;;;;3.13;1.83;;;;;;;6.59;100.00;98618.25;4963490;28;20593;-70
2024/02/26 00:25:07;;;;;;;3.35;1.33;;;;;;;6.61;100.00;98626.06;4958984;28;20058;-69
2024/02/26 00:27:34;;;;;;;2.38;1.60;;;;;;;6.58;100.00;98607.81;4937877;28;20555;-70
2024/02/26 00:30:04;;;;;;;2.50;1.80;;;;;;;6.64;100.00;98616.16;4942186;28;20050;-70
2024/02/26 00:32:34;;;;;;;2.33;1.50;;;;;;;6.62;100.00;98607.53;4953608;28;20051;-70
2024/02/26 00:35:04;;;;;;;2.83;1.30;;;;;;;6.61;100.00;98584.78;4961378;28;20105;-71
2024/02/26 00:37:32;;;;;;;2.60;1.77;;;;;;;6.60;100.00;98569.97;4981895;28;20493;-71
2024/02/26 00:40:01;;;;;;;3.88;1.70;;;;;;;6.61;100.00;98563.75;4971657;28;20137;-69
2024/02/26 00:42:30;;;;;;;2.70;1.52;;;;;;;6.61;100.00;98582.16;4962588;28;20062;-69
2024/02/26 00:45:00;;;;;;;2.55;1.38;;;;;;;6.62;100.00;98593.53;4967019;28;20034;-70
2024/02/26 00:47:28;;;;;;;1.60;1.25;;;;;;;6.63;100.00;98576.81;4971568;28;20051;-70
2024/02/26 00:49:59;;;;;;;1.98;1.40;;;;;;;6.65;100.00;98578.41;4981239;28;20058;-68
2024/02/26 00:52:27;;;;;;;2.80;1.40;;;;;;;6.68;100.00;98578.25;4984939;28;20050;-69
2024/02/26 00:54:56;;;;;;;1.52;1.25;;;;;;;6.65;100.00;98577.56;4970623;28;20483;-70
2024/02/26 00:57:26;;;;;;;1.77;1.45;;;;;;;6.67;100.00;98586.22;4989245;28;20483;-71
2024/02/26 00:59:55;;;;;;;1.80;1.40;;;;;;;6.73;100.00;98598.16;4979099;28;20050;-71
2024/02/26 01:02:24;;;;;;;1.52;1.38;;;;;;;6.65;100.00;98567.91;4973029;28;20129;-70
2024/02/26 01:04:52;;;;;;;1.80;1.58;;;;;;;6.68;100.00;98559.81;4963257;28;20118;-69
2024/02/26 01:07:21;;;;;;;2.15;1.65;;;;;;;6.71;100.00;98563.22;4972809;28;20044;-70
2024/02/26 01:09:49;;;;;;;1.83;1.40;;;;;;;6.68;100.00;98572.97;4973765;28;20045;-70
2024/02/26 01:12:18;;;;;;;3.53;1.67;;;;;;;6.69;100.00;98573.81;4987591;28;20051;-70
2024/02/26 01:14:46;;;;;;;2.28;1.77;;;;;;;6.68;100.00;98551.94;5008550;28;20047;-69
2024/02/26 01:17:14;;;;;;;2.47;1.80;;;;;;;6.66;100.00;98551.19;5010675;28;20111;-69
2024/02/26 01:19:42;;;;;;;2.50;1.70;;;;;;;6.65;100.00;98538.13;4992819;28;21333;-69
2024/02/26 01:22:12;;;;;;;2.92;1.90;;;;;;;6.67;100.00;98581.81;5006520;28;20047;-69
2024/02/26 01:24:41;;;;;;;3.87;2.03;;;;;;;6.68;100.00;98577.41;4995415;28;20093;-70
2024/02/26 01:27:10;;;;;;;3.00;1.70;;;;;;;6.66;100.00;98580.09;4982586;28;20114;-72
2024/02/26 01:29:38;;;;;;;2.20;1.90;;;;;;;6.63;100.00;98556.63;4969236;28;20708;-69
2024/02/26 01:32:07;;;;;;;1.95;1.75;;;;;;;6.66;100.00;98545.06;4956885;28;20078;-70
2024/02/26 01:34:36;;;;;;;2.20;1.73;;;;;;;6.60;100.00;98551.56;4974559;28;20058;-68
2024/02/26 01:37:05;;;;;;;3.22;2.17;;;;;;;6.71;100.00;98550.06;4991979;28;20047;-68
2024/02/26 01:39:35;;;;;;;2.97;2.08;;;;;;;6.79;100.00;98558.31;4972413;28;20155;-71
2024/02/26 01:42:05;;;;;;;4.10;1.92;;;;;;;6.76;100.00;98567.28;4983188;28;20038;-70
2024/02/26 01:44:33;;;;;;;4.13;2.17;;;;;;;6.74;100.00;98592.81;4972566;28;20043;-70
2024/02/26 01:47:03;;;;;;;2.80;2.00;;;;;;;6.79;100.00;98596.00;4982153;28;20637;-71
2024/02/26 01:49:31;;;;;;;2.40;1.85;;;;;;;6.78;100.00;98598.72;4981658;28;20074;-71
2024/02/26 01:51:59;;;;;;;3.38;1.95;;;;;;;6.78;100.00;98582.94;4952846;28;20039;-71
2024/02/26 01:54:28;;;;;;;3.35;1.88;;;;;;;6.73;100.00;98569.22;4958111;28;20181;-70
2024/02/26 01:56:57;;;;;;;3.60;2.08;;;;;;;6.82;100.00;98568.66;4979898;28;20666;-70
2024/02/26 01:59:27;;;;;;;2.65;1.80;;;;;;;6.85;100.00;98563.22;4973829;28;20519;-70
2024/02/26 02:01:58;;;;;;;2.53;1.83;;;;;;;6.83;100.00;98555.41;4967049;28;22817;-72
2024/02/26 02:04:30;;;;;;;2.95;1.95;;;;;;;6.81;100.00;98582.75;4957869;28;20042;-71
2024/02/26 02:07:01;;;;;;;2.50;1.95;;;;;;;6.78;100.00;98580.31;4946395;28;20046;-69
2024/02/26 02:09:31;;;;;;;3.05;1.70;;;;;;;6.76;100.00;98553.28;4968338;28;20042;-71
2024/02/26 02:12:01;;;;;;;2.92;2.20;;;;;;;6.76;100.00;98551.50;4944754;28;20444;-71
2024/02/26 02:14:31;;;;;;;2.33;1.48;;;;;;;6.81;100.00;98577.50;4972075;28;20061;-70
2024/02/26 02:17:00;;;;;;;2.70;1.98;;;;;;;6.79;100.00;98560.94;4981210;28;20039;-72
2024/02/26 02:19:28;;;;;;;2.88;2.00;;;;;;;6.80;100.00;98555.59;4981592;28;20054;-72
2024/02/26 02:21:58;;;;;;;3.15;2.10;;;;;;;6.80;100.00;98596.84;4971537;28;21431;-70
2024/02/26 02:24:26;;;;;;;5.47;2.60;;;;;;;6.79;100.00;98627.56;4973441;28;20061;-70
2024/02/26 02:26:55;;;;;;;3.67;2.28;;;;;;;6.77;100.00;98618.09;4984016;28;20059;-69
2024/02/26 02:29:24;;;;;;;3.90;2.10;;;;;;;6.72;100.00;98605.22;4974699;28;20061;-70
2024/02/26 02:31:52;;;;;;;4.40;2.40;;;;;;;6.67;100.00;98597.59;4968939;28;20387;-70
2024/02/26 02:34:20;;;;;;;4.20;2.20;;;;;;;6.62;100.00;98604.91;4955525;28;20057;-69
2024/02/26 02:36:51;;;;;;;3.13;2.13;;;;;;;6.62;100.00;98589.13;4971802;28;20062;-67
2024/02/26 02:39:24;;;;;;;3.08;2.20;;;;;;;6.61;100.00;98597.13;4977886;28;20043;-72
2024/02/26 02:41:53;;;;;;;2.47;2.00;;;;;;;6.56;100.00;98597.38;4977998;28;20063;-67
2024/02/26 02:44:22;;;;;;;3.22;2.10;;;;;;;6.56;100.00;98600.03;4989379;28;20043;-72
2024/02/26 02:46:53;;;;;;;2.67;2.10;;;;;;;6.55;100.00;98603.59;4997636;28;20057;-69
2024/02/26 02:49:22;;;;;;;4.03;2.20;;;;;;;6.58;100.00;98618.34;4981186;28;20055;-70
2024/02/26 02:51:53;;;;;;;4.95;2.22;;;;;;;6.59;100.00;98613.00;4969184;28;20066;-70
2024/02/26 02:54:22;;;;;;;3.50;2.42;;;;;;;6.57;100.00;98596.44;4968235;28;20050;-72
2024/02/26 02:56:51;;;;;;;2.67;2.10;;;;;;;6.55;100.00;98608.00;5004236;28;20090;-67
2024/02/26 02:59:19;;;;;;;2.92;2.03;;;;;;;6.58;100.00;98618.34;4988369;28;20047;-70
2024/02/26 03:01:47;;;;;;;2.58;1.90;;;;;;;6.55;100.00;98608.00;4986260;28;20099;-69
2024/02/26 03:04:15;;;;;;;3.58;1.90;;;;;;;6.54;100.00;98611.56;4997010;28;20050;-68
2024/02/26 03:06:42;;;;;;;2.63;2.13;;;;;;;6.53;100.00;98613.34;5002906;28;20077;-68
2024/02/26 03:09:12;;;;;;;2.13;1.92;;;;;;;6.51;100.00;98619.63;5003360;28;20057;-68
2024/02/26 03:11:43;;;;;;;3.78;2.30;;;;;;;6.50;100.00;98608.25;4984802;28;20055;-68
2024/02/26 03:14:13;;;;;;;4.55;2.50;;;;;;;6.51;100.00;98615.22;4990089;28;21919;-68
2024/02/26 03:16:41;;;;;;;2.78;2.15;;;;;;;6.42;100.00;98596.50;4982589;28;20049;-69
2024/02/26 03:19:10;;;;;;;2.30;1.87;;;;;;;6.51;100.00;98615.22;4995931;28;20046;-66
2024/02/26 03:21:39;;;;;;;4.75;2.20;;;;;;;6.53;100.00;98618.59;5002292;28;20550;-70
2024/02/26 03:24:10;;;;;;;2.47;1.98;;;;;;;6.50;100.00;98608.25;4987032;28;20046;-67
2024/02/26 03:26:38;;;;;;;3.03;2.13;;;;;;;6.48;100.00;98609.28;4970801;28;20093;-70
2024/02/26 03:29:07;;;;;;;2.92;2.10;;;;;;;6.50;100.00;98613.50;4955034;28;20043;-68
2024/02/26 03:31:35;;;;;;;3.00;2.40;;;;;;;6.48;100.00;98607.50;4969507;28;20502;-70
2024/02/26 03:34:03;;;;;;;2.70;2.00;;;;;;;6.53;100.00;98620.38;4977749;28;20061;-69
2024/02/26 03:36:32;;;;;;;2.70;2.15;;;;;;;6.50;100.00;98616.16;4966772;28;20038;-70
2024/02/26 03:39:00;;;;;;;2.90;2.17;;;;;;;6.48;100.00;98609.28;4964074;28;20047;-70
2024/02/26 03:41:29;;;;;;;2.95;2.10;;;;;;;6.47;100.00;98605.81;4972881;28;20074;-69
2024/02/26 03:43:57;;;;;;;2.67;2.00;;;;;;;6.51;100.00;98607.31;4984748;28;20042;-66
2024/02/26 03:46:30;;;;;;;;;;;;;;;6.53;100.00;98623.00;4986147;28;20074;-71
2024/02/26 03:48:59;;;;;;;5.07;2.28;;;;;;;6.51;100.00;98620.47;4993506;28;19972;-69
2024/02/26 03:51:33;;;;;;;3.03;2.35;;;;;;;6.52;100.00;98614.28;4975655;28;20046;-70
2024/02/26 03:54:02;;;;;;;2.92;1.92;;;;;;;6.52;100.00;98614.28;4976828;28;20046;-68
2024/02/26 03:56:31;;;;;;;2.75;2.00;;;;;;;6.53;100.00;98610.72;4969599;28;20074;-70
2024/02/26 03:59:02;;;;;;;3.78;2.22;;;;;;;6.54;100.00;98617.66;4962162;28;20058;-67
2024/02/26 04:01:31;;;;;;;2.38;2.05;;;;;;;6.52;100.00;98611.66;4945182;28;20099;-67
2024/02/26 04:04:00;;;;;;;2.63;1.98;;;;;;;6.52;100.00;98614.28;4988826;28;20055;-72
2024/02/26 04:06:29;;;;;;;3.35;2.20;;;;;;;6.46;100.00;98614.63;4990715;28;20070;-73
2024/02/26 04:08:57;;;;;;;3.03;2.30;;;;;;;6.56;100.00;98622.84;4990612;28;20078;-69
2024/02/26 04:11:25;;;;;;;2.55;2.15;;;;;;;6.54;100.00;98622.06;4969256;28;20883;-69
2024/02/26 04:13:53;;;;;;;2.83;2.28;;;;;;;6.55;100.00;98619.38;4974465;28;20177;-70
2024/02/26 04:16:27;;;;;;;2.95;2.28;;;;;;;6.47;100.00;98610.22;4973722;28;20045;-68
2024/02/26 04:18:59;;;;;;;4.07;2.30;;;;;;;6.51;100.00;98617.84;4987061;28;20043;-68
2024/02/26 04:21:27;;;;;;;4.85;2.33;;;;;;;6.53;100.00;98615.13;4992608;28;20086;-71
2024/02/26 04:23:55;;;;;;;3.80;2.22;;;;;;;6.56;100.00;98631.56;4990891;28;20042;-68
2024/02/26 04:26:25;;;;;;;3.55;2.10;;;;;;;6.56;100.00;98622.84;4987427;28;20038;-70
2024/02/26 04:28:54;;;;;;;3.25;2.28;;;;;;;6.55;100.00;98619.38;4991160;28;20051;-70
2024/02/26 04:31:26;;;;;;;3.33;2.15;;;;;;;6.57;100.00;98621.91;4977394;28;20046;-68
2024/02/26 04:33:57;;;;;;;2.58;2.13;;;;;;;6.56;100.00;98618.44;4973346;28;20066;-69
2024/02/26 04:36:26;;;;;;;3.13;2.28;;;;;;;6.58;100.00;98620.97;4978156;28;20106;-70
2024/02/26 04:38:55;;;;;;;3.67;2.25;;;;;;;6.56;100.00;98618.44;5000503;28;20073;-68
2024/02/26 04:41:26;;;;;;;3.60;2.20;;;;;;;6.56;100.00;98615.78;4993242;28;20102;-67
2024/02/26 04:43:54;;;;;;;3.28;2.50;;;;;;;6.57;100.00;98620.13;4994678;28;20054;-68
2024/02/26 04:46:23;;;;;;;4.05;2.40;;;;;;;6.63;100.00;98626.78;4999649;28;20043;-66
2024/02/26 04:48:52;;;;;;;3.55;2.13;;;;;;;6.61;100.00;98618.16;4983044;28;20862;-71
2024/02/26 04:51:25;;;;;;;4.75;2.60;;;;;;;6.61;100.00;98618.97;4976430;28;20043;-69
2024/02/26 04:53:54;;;;;;;4.70;2.85;;;;;;;6.62;100.00;98631.19;4962965;28;20070;-69
2024/02/26 04:56:22;;;;;;;3.35;2.33;;;;;;;6.62;100.00;98620.69;4987444;28;20051;-69
2024/02/26 04:58:50;;;;;;;2.72;2.30;;;;;;;6.69;100.00;98624.66;5006209;28;20049;-69
2024/02/26 05:01:19;;;;;;;3.45;2.70;;;;;;;6.66;100.00;98616.94;4991969;28;20050;-71
2024/02/26 05:03:47;;;;;;;3.88;2.28;;;;;;;6.67;100.00;98629.16;4989516;28;20042;-66
2024/02/26 05:06:17;;;;;;;3.35;2.40;;;;;;;6.65;100.00;98631.03;4988604;28;20043;-68
2024/02/26 05:08:46;;;;;;;3.92;2.60;;;;;;;6.73;100.00;98650.78;4996446;28;20047;-71
2024/02/26 05:11:18;;;;;;;3.22;2.60;;;;;;;6.69;100.00;98637.81;4962075;28;20451;-70
2024/02/26 05:13:46;;;;;;;4.05;3.05;;;;;;;6.69;100.00;98632.53;4972964;28;20142;-71
2024/02/26 05:16:14;;;;;;;3.20;2.55;;;;;;;6.77;100.00;98647.03;4969109;28;20038;-70
2024/02/26 05:18:42;;;;;;;3.53;2.88;;;;;;;6.76;100.00;98647.97;4971326;28;20053;-69
2024/02/26 05:21:12;;;;;;;4.32;2.88;;;;;;;6.74;100.00;98640.16;4984431;28;20042;-68
2024/02/26 05:23:42;;;;;;;5.87;3.07;;;;;;;6.76;100.00;98648.81;4974463;28;20142;-67
2024/02/26 05:26:14;;;;;;;;;;;;;;;6.81;100.00;98656.41;4951806;28;20489;-70
2024/02/26 05:28:42;;;;;;;5.88;3.10;;;;;;;6.81;100.00;98652.00;4950617;28;19930;-71
2024/02/26 05:31:15;;;;;;;4.28;3.08;;;;;;;6.77;100.00;98647.84;4970914;28;20066;-70
2024/02/26 05:33:42;;;;;;;6.60;2.97;;;;;;;6.79;100.00;98647.75;4950121;28;20047;-70
2024/02/26 05:36:10;;;;;;;5.00;3.20;;;;;;;6.76;100.00;98648.81;4939034;28;20061;-70
2024/02/26 05:38:38;;;;;;;5.13;3.10;;;;;;;6.75;100.00;98641.88;4952483;28;20086;-69
2024/02/26 05:41:08;;;;;;;5.63;3.42;;;;;;;6.72;100.00;98641.19;4954374;28;20043;-71
2024/02/26 05:43:37;;;;;;;5.10;2.88;;;;;;;6.69;100.00;98650.09;4971903;28;20043;-68
2024/02/26 05:46:07;;;;;;;4.97;3.58;;;;;;;6.68;100.00;98651.03;4961057;28;20046;-70
2024/02/26 05:48:35;;;;;;;5.20;3.80;;;;;;;6.60;100.00;98646.25;4953514;28;20057;-71
2024/02/26 05:51:06;;;;;;;4.28;3.38;;;;;;;6.58;100.00;98658.63;4984732;28;20509;-70
2024/02/26 05:53:33;;;;;;;;;;;;;;;6.59;100.00;98662.97;4986959;28;20123;-66
2024/02/26 05:56:01;;;;;;;5.65;3.67;;;;;;;6.44;100.00;98642.81;4966447;28;19925;-72
2024/02/26 05:58:29;;;;;;;7.32;4.20;;;;;;;6.53;100.00;98660.69;4972672;28;20200;-69
2024/02/26 06:00:59;;;;;;;4.75;3.67;;;;;;;6.49;100.00;98661.78;4972328;28;20038;-69
2024/02/26 06:03:29;;;;;;;6.35;4.45;;;;;;;6.49;100.00;98660.94;4982534;28;20058;-72
2024/02/26 06:06:00;;;;;;;5.60;3.83;;;;;;;6.36;100.00;98652.06;4980105;28;20066;-71
2024/02/26 06:08:31;;;;;;;6.18;4.10;;;;;;;6.24;100.00;98656.25;4986741;28;20077;-72
2024/02/26 06:10:58;;;;;;;7.20;4.50;;;;;;;6.15;100.00;98664.63;4969624;28;20085;-71
2024/02/26 06:13:28;;;;;;;6.93;4.68;;;;;;;6.05;100.00;98666.94;4955362;28;20049;-71
2024/02/26 06:15:56;;;;;;;7.43;4.82;;;;;;;5.93;100.00;98668.47;4970336;28;20047;-71
2024/02/26 06:18:25;;;;;;;7.20;4.68;;;;;;;5.79;100.00;98657.88;4971050;28;20074;-72
2024/02/26 06:20:54;;;;;;;6.43;4.53;;;;;;;5.71;100.00;98654.78;4971343;28;20049;-71
2024/02/26 06:23:23;;;;;;;7.82;4.82;;;;;;;5.67;100.00;98658.50;4974368;28;20055;-71
2024/02/26 06:25:51;;;;;;;8.00;4.72;;;;;;;5.56;100.00;98658.25;4966745;28;20042;-69
2024/02/26 06:28:20;;;;;;;8.32;5.40;;;;;;;5.59;100.00;98663.34;4979038;28;20031;-71
2024/02/26 06:30:52;;;;;;;6.47;4.85;;;;;;;5.70;100.00;98691.63;4963701;28;20043;-72
2024/02/26 06:33:21;;;;;;;8.38;4.50;;;;;;;5.60;100.00;98689.53;4971191;28;20561;-70
2024/02/26 06:35:51;;;;;;;8.90;4.65;;;;;;;5.58;100.00;98699.25;4970376;28;20055;-70
2024/02/26 06:38:19;;;;;;;8.18;5.10;;;;;;;5.54;100.00;98705.59;4975732;28;20054;-74
2024/02/26 06:40:50;;;;;;;8.23;4.90;;;;;;;5.53;100.00;98716.19;4977319;28;20414;-70
2024/02/26 06:43:19;;;;;;;6.13;4.05;;;;;;;5.49;100.00;98725.16;4962237;28;20043;-70
2024/02/26 06:45:49;;;;;;;7.75;4.72;;;;;;;5.48;100.00;98728.72;4980085;28;20042;-70
2024/02/26 06:48:25;;;;;;;8.07;4.95;;;;;;;5.46;100.00;98728.81;4987516;28;20057;-70
2024/02/26 06:50:54;;;;;;;7.68;4.82;;;;;;;5.46;100.00;98735.81;4966486;28;20070;-70
2024/02/26 06:53:22;;;;;;;7.47;5.60;;;;;;;5.44;100.00;98741.16;4986607;28;20102;-70
2024/02/26 06:55:50;;;;;;;10.18;5.85;;;;;;;5.46;100.00;98738.44;4985289;28;20054;-67
2024/02/26 06:58:20;;;;;;;9.05;5.97;;;;;;;5.46;100.00;98751.56;4989986;28;20043;-69
2024/02/26 07:00:48;;;;;;;9.27;6.13;;;;;;;5.43;100.00;98747.31;4986821;28;20085;-69
2024/02/26 07:03:17;;;;;;;8.90;5.60;;;;;;;5.43;100.00;98751.72;5002435;28;20046;-70
2024/02/26 07:05:46;;;;;;;11.40;5.78;;;;;;;5.43;100.00;98756.97;4988579;28;20070;-68
2024/02/26 07:08:18;;;;;;;10.07;6.20;;;;;;;5.43;100.00;98754.34;4989869;28;20058;-68
2024/02/26 07:10:49;;;;;;;8.98;6.05;;;;;;;5.41;100.00;98748.34;4991177;28;20106;-67
2024/02/26 07:13:17;;;;;;;11.25;6.22;;;;;;;5.36;100.00;98755.59;5004063;28;20081;-71
2024/02/26 07:15:45;;;;;;;9.45;5.95;;;;;;;5.40;100.00;98765.00;4996814;28;20070;-68
2024/02/26 07:18:13;;;;;;;9.25;6.25;;;;;;;5.32;100.00;98761.94;4984506;28;20057;-71
2024/02/26 07:20:41;;;;;;;9.45;6.53;;;;;;;5.37;100.00;98773.03;4998020;28;20047;-70
2024/02/26 07:23:09;;;;;;;10.93;6.53;;;;;;;5.36;100.00;98781.84;4997791;28;20196;-67
2024/02/26 07:25:39;;;;;;;12.57;6.82;;;;;;;5.33;100.00;98769.75;5003876;28;20070;-68
2024/02/26 07:28:07;;;;;;;12.27;6.70;;;;;;;5.35;100.00;98785.41;4989667;28;20059;-65
2024/02/26 07:30:37;;;;;;;11.60;7.25;;;;;;;5.36;100.00;98782.69;4988990;28;20264;-70
2024/02/26 07:33:06;;;;;;;11.45;6.90;;;;;;;5.34;100.00;98783.72;4984179;28;20119;-69
2024/02/26 07:35:36;;;;;;;9.98;6.53;;;;;;;5.31;100.00;98781.25;4958612;28;20047;-66
2024/02/26 07:38:04;;;;;;;11.63;7.03;;;;;;;5.28;100.00;98780.47;4967163;28;20134;-69
2024/02/26 07:40:32;;;;;;;10.43;6.97;;;;;;;5.21;100.00;98775.59;4973325;28;21055;-66
2024/02/26 07:43:02;;;;;;;11.77;7.07;;;;;;;5.26;100.00;98787.56;4986349;28;20052;-68
2024/02/26 07:45:30;;;;;;;10.82;6.70;;;;;;;5.24;100.00;98778.91;4976504;28;20050;-69
2024/02/26 07:47:58;;;;;;;10.63;6.47;;;;;;;5.25;100.00;98788.50;4972998;28;20055;-69
2024/02/26 07:50:26;;;;;;;10.05;6.72;;;;;;;5.19;100.00;98775.69;4974106;28;20058;-65
2024/02/26 07:52:55;;;;;;;10.43;7.35;;;;;;;5.29;100.00;98792.66;4985551;28;20060;-67
2024/02/26 07:55:23;;;;;;;10.40;6.57;;;;;;;5.31;100.00;98797.00;4986558;28;20038;-68
2024/02/26 07:57:51;;;;;;;13.00;7.60;;;;;;;5.35;100.00;98795.91;4969929;28;20119;-68
2024/02/26 08:00:21;;;;;;;10.35;7.25;;;;;;;5.35;100.00;98795.91;4937863;28;20086;-67
2024/02/26 08:02:50;;;;;;;11.73;7.47;;;;;;;5.33;100.00;98793.38;4979129;28;20049;-65
2024/02/26 08:05:18;;;;;;;14.50;7.35;;;;;;;5.33;100.00;98796.00;4981850;28;20050;-68
2024/02/26 08:07:48;;;;;;;13.30;8.00;;;;;;;5.33;100.00;98803.00;4974423;28;20049;-67
2024/02/26 08:10:18;;;;;;;12.63;7.47;;;;;;;5.34;100.00;98804.72;4966327;28;20762;-69
2024/02/26 08:12:46;;;;;;;13.50;7.47;;;;;;;5.34;100.00;98810.81;4992302;28;20057;-66
2024/02/26 08:15:14;;;;;;;11.77;7.38;;;;;;;5.36;100.00;98803.69;4976476;28;20109;-69
2024/02/26 08:17:43;;;;;;;11.57;7.18;;;;;;;5.40;100.00;98801.75;4972747;28;20058;-68
2024/02/26 08:20:12;;;;;;;11.15;7.70;;;;;;;5.40;100.00;98805.22;4978924;28;20050;-69
2024/02/26 08:22:41;;;;;;;12.35;7.55;;;;;;;5.44;100.00;98813.81;4978842;28;20043;-68
2024/02/26 08:25:10;;;;;;;12.68;7.72;;;;;;;5.50;100.00;98824.00;4961841;28;20035;-67
2024/02/26 08:27:39;;;;;;;11.27;8.00;;;;;;;5.55;100.00;98814.09;4976345;28;20110;-68
2024/02/26 08:30:08;;;;;;;13.95;8.02;;;;;;;5.63;100.00;98807.53;4966456;28;20063;-69
2024/02/26 08:32:38;;;;;;;14.15;8.23;;;;;;;5.71;100.00;98809.75;4951074;28;20039;-67
2024/02/26 08:35:08;;;;;;;14.27;8.48;;;;;;;5.70;100.00;98810.66;4951572;28;20043;-66
2024/02/26 08:37:37;;;;;;;16.60;8.13;;;;;;;5.70;100.00;98812.44;4946807;28;20055;-69
2024/02/26 08:40:07;;;;;;;13.75;7.85;;;;;;;5.77;100.00;98814.69;4949465;28;20094;-67
2024/02/26 08:42:40;;;;;;;13.73;8.18;;;;;;;5.78;100.00;98811.13;4941225;28;20157;-69
2024/02/26 08:45:09;;;;;;;14.70;7.32;;;;;;;5.80;100.00;98814.53;4950394;28;20554;-68
2024/02/26 08:47:38;;;;;;;12.67;7.53;;;;;;;5.80;100.00;98814.53;4947046;28;20546;-67
2024/02/26 08:50:11;;;;;;;11.88;7.78;;;;;;;5.76;100.00;98818.25;4950117;28;20486;-68
2024/02/26 08:52:41;;;;;;;13.40;8.10;;;;;;;5.76;100.00;98818.25;4967268;28;20051;-68
2024/02/26 08:55:09;;;;;;;11.40;7.43;;;;;;;5.81;100.00;98818.84;4952479;28;20048;-70
2024/02/26 08:57:38;;;;;;;13.95;8.45;;;;;;;5.86;100.00;98823.84;4940899;28;20629;-70
2024/02/26 09:00:08;;;;;;;14.35;8.27;;;;;;;5.90;100.00;98814.91;4955994;28;20040;-68
2024/02/26 09:02:38;;;;;;;14.63;7.90;;;;;;;5.95;100.00;98820.78;4976068;28;20047;-69
2024/02/26 09:05:08;;;;;;;15.05;8.48;;;;;;;5.95;100.00;98824.25;4963645;28;20629;-68
2024/02/26 09:07:37;;;;;;;14.43;8.63;;;;;;;6.03;100.00;98834.34;4956838;28;20046;-69
2024/02/26 09:10:08;;;;;;;12.18;7.60;;;;;;;5.99;100.00;98838.91;4957424;28;20129;-68
2024/02/26 09:12:36;;;;;;;14.95;8.65;;;;;;;5.99;100.00;98833.66;4957702;28;20135;-69
2024/02/26 09:15:05;;;;;;;15.10;8.23;;;;;;;6.03;100.00;98829.09;4971861;28;20373;-68
2024/02/26 09:17:33;;;;;;;15.45;8.27;;;;;;;6.08;100.00;98829.69;4965836;28;20078;-67
2024/02/26 09:20:03;;;;;;;15.38;8.77;;;;;;;6.14;100.00;98824.09;4976259;28;20110;-68
2024/02/26 09:22:37;;;;;;;13.68;8.50;;;;;;;6.10;100.00;98824.38;4979924;28;20046;-67
2024/02/26 09:25:06;;;;;;;11.98;7.90;;;;;;;6.18;100.00;98824.78;4979737;28;20094;-66
2024/02/26 09:27:34;;;;;;;17.10;9.07;;;;;;;6.19;100.00;98826.50;4985017;28;20054;-66
2024/02/26 09:30:07;;;;;;;12.07;8.57;;;;;;;6.13;100.00;98829.47;4991060;28;20077;-66
2024/02/26 09:32:36;;;;;;;11.87;8.03;;;;;;;6.24;100.00;98834.97;4979199;28;20043;-69
2024/02/26 09:35:04;;;;;;;16.48;8.52;;;;;;;6.18;100.00;98830.91;4963667;28;20406;-67
2024/02/26 09:37:36;;;;;;;12.38;8.48;;;;;;;6.29;100.00;98832.97;4965885;28;20056;-66
2024/02/26 09:40:05;;;;;;;14.95;8.57;;;;;;;6.34;100.00;98836.16;4985156;28;20102;-67
2024/02/26 09:42:36;;;;;;;14.45;8.68;;;;;;;6.42;100.00;98834.00;4998723;28;20062;-68
2024/02/26 09:45:08;;;;;;;14.48;9.07;;;;;;;6.49;100.00;98837.97;4984151;28;20073;-66
2024/02/26 09:47:38;;;;;;;14.93;8.65;;;;;;;6.60;100.00;98846.13;4981477;28;20511;-69
2024/02/26 09:50:12;;;;;;;14.60;8.65;;;;;;;6.77;100.00;98849.59;4996368;28;20062;-67
2024/02/26 09:52:42;;;;;;;15.48;8.65;;;;;;;6.86;100.00;98849.06;5000620;28;20041;-66
2024/02/26 09:55:10;;;;;;;18.02;8.85;;;;;;;6.86;100.00;98841.19;4960772;28;20200;-69
2024/02/26 09:57:38;;;;;;;15.75;8.90;;;;;;;6.92;100.00;98849.59;4975274;28;20043;-67
2024/02/26 10:00:11;;;;;;;12.95;8.05;;;;;;;7.00;100.00;98857.03;4968049;28;20051;-68
2024/02/26 10:02:42;;;;;;;11.95;7.57;;;;;;;6.99;100.00;98852.69;4979124;28;20047;-67
2024/02/26 10:05:13;;;;;;;11.45;7.68;;;;;;;6.95;100.00;98854.66;4983195;28;20042;-69
2024/02/26 10:07:45;;;;;;;13.13;7.05;;;;;;;6.89;100.00;98859.44;4962941;28;20053;-67
2024/02/26 10:10:14;;;;;;;12.73;7.15;;;;;;;6.85;100.00;98842.13;4962179;28;20045;-68
2024/02/26 10:12:43;;;;;;;12.00;7.47;;;;;;;6.91;100.00;98845.25;4974190;28;21866;-69
2024/02/26 10:15:10;;;;;;;10.40;6.90;;;;;;;6.95;100.00;98844.13;4990052;28;20145;-65
2024/02/26 10:17:39;;;;;;;11.25;6.90;;;;;;;7.01;100.00;98849.06;4966231;28;20065;-65
2024/02/26 10:20:15;;;;;;;9.45;6.22;;;;;;;7.03;100.00;98857.72;4965854;28;20102;-68
2024/02/26 10:22:45;;;;;;;10.75;6.75;;;;;;;6.95;100.00;98854.66;4965598;28;20129;-68
2024/02/26 10:25:19;;;;;;;8.55;6.40;;;;;;;6.91;100.00;98858.41;4949423;28;20055;-67
2024/02/26 10:27:47;;;;;;;11.05;6.82;;;;;;;6.95;100.00;98856.44;4970905;28;20042;-68
2024/02/26 10:30:20;;;;;;;11.13;7.00;;;;;;;6.98;100.00;98851.00;4962383;28;20149;-70
2024/02/26 10:32:50;;;;;;;14.15;7.05;;;;;;;7.04;100.00;98863.81;4963679;28;20427;-65
2024/02/26 10:35:20;;;;;;;11.18;6.97;;;;;;;7.12;100.00;98871.28;4964028;28;20081;-69
2024/02/26 10:37:51;;;;;;;12.85;6.90;;;;;;;7.10;100.00;98868.72;4961498;28;20566;-65
2024/02/26 10:40:19;;;;;;;;;;;;;;;7.18;100.00;98878.81;4973829;28;20050;-68
2024/02/26 10:42:51;;;;;;;12.52;7.18;;;;;;;7.25;100.00;98881.00;4965692;28;19926;-67
2024/02/26 10:45:20;;;;;;;17.10;7.87;;;;;;;7.29;100.00;98868.53;4981978;28;20047;-67
2024/02/26 10:47:49;;;;;;;11.90;7.47;;;;;;;7.45;100.00;98873.75;4960941;28;20047;-69
2024/02/26 10:50:19;;;;;;;11.20;6.88;;;;;;;7.66;100.00;98888.31;4984167;28;20573;-68
2024/02/26 10:52:50;;;;;;;10.82;7.10;;;;;;;7.86;100.00;98890.63;4964633;28;20058;-67
2024/02/26 10:55:19;;;;;;;11.60;7.50;;;;;;;7.96;100.00;98901.44;4964928;28;20046;-70
2024/02/26 10:57:54;;;;;;;10.57;6.22;;;;;;;8.08;100.00;98893.63;4959432;28;20051;-66
2024/02/26 11:00:24;;;;;;;12.25;7.18;;;;;;;8.28;100.00;98894.22;4983494;28;20032;-69
2024/02/26 11:02:58;;;;;;;9.55;6.65;;;;;;;8.46;100.00;98892.28;4980493;28;20058;-66
2024/02/26 11:05:29;;;;;;;11.05;6.13;;;;;;;8.59;100.00;98894.03;4983771;28;20038;-68
2024/02/26 11:07:58;;;;;;;9.63;6.38;;;;;;;8.45;100.00;98883.50;4978541;28;20065;-65
2024/02/26 11:10:30;;;;;;;9.77;5.78;;;;;;;8.38;100.00;98898.00;4992431;28;20043;-65
2024/02/26 11:13:02;;;;;;;9.85;6.50;;;;;;;8.26;100.00;98901.38;4980430;28;20051;-69
2024/02/26 11:15:32;;;;;;;9.48;6.20;;;;;;;8.22;100.00;98902.50;4988609;28;20043;-68
2024/02/26 11:18:02;;;;;;;9.50;6.47;;;;;;;8.22;100.00;98898.06;4957357;28;20062;-67
2024/02/26 11:20:33;;;;;;;10.85;7.13;;;;;;;8.27;100.00;98898.63;4984320;28;20126;-68
2024/02/26 11:23:02;;;;;;;11.65;6.80;;;;;;;8.26;100.00;98896.94;4965918;28;20061;-68
2024/02/26 11:25:30;;;;;;;11.80;6.53;;;;;;;8.34;100.00;98899.16;4951180;28;20047;-66
2024/02/26 11:28:05;;;;;;;8.50;5.78;;;;;;;8.36;100.00;98905.16;4974703;28;20114;-67
2024/02/26 11:30:38;;;;;;;10.95;6.60;;;;;;;8.42;100.00;98902.16;4950676;28;20168;-68
2024/02/26 11:33:08;;;;;;;11.15;7.25;;;;;;;8.59;100.00;98901.09;4941451;28;20070;-69
2024/02/26 11:35:37;;;;;;;11.18;6.78;;;;;;;8.79;100.00;98903.34;4949432;28;20490;-68
2024/02/26 11:38:08;;;;;;;10.52;6.88;;;;;;;8.95;100.00;98898.78;4943839;28;20393;-68
2024/02/26 11:40:40;;;;;;;10.55;6.32;;;;;;;8.96;100.00;98895.22;4945693;28;20058;-69